sensor_id;sensor_type;location;lat;lon;timestamp;temperature;humidity
8643;DHT22;4359;49.358;11.256;2022-10-29T00:00:38;11.20;99.90
8643;DHT22;4359;49.358;11.256;2022-10-29T00:03:05;11.30;99.90
8643;DHT22;4359;49.358;11.256;2022-10-29T00:05:31;11.20;99.90
8643;DHT22;4359;49.358;11.256;2022-10-29T00:07:56;11.20;99.90
8643;DHT22;4359;49.358;11.256;2022-10-29T00:10:22;11.20;99.90
8643;DHT22;4359;49.358;11.256;2022-10-29T00:12:48;11.30;99.90
8643;DHT22;4359;49.358;11.256;2022-10-29T00:15:13;11.30;99.90
8643;DHT22;4359;49.358;11.256;2022-10-29T00:17:39;11.30;99.90
8643;DHT22;4359;49.358;11.256;2022-10-29T00:20:06;11.30;99.90
8643;DHT22;4359;49.358;11.256;2022-10-29T00:22:32;11.30;99.90
8643;DHT22;4359;49.358;11.256;2022-10-29T00:24:57;11.30;99.90
8643;DHT22;4359;49.358;11.256;2022-10-29T00:27:23;11.30;99.90
8643;DHT22;4359;49.358;11.256;2022-10-29T00:29:49;11.30;99.90
8643;DHT22;4359;49.358;11.256;2022-10-29T00:32:15;11.20;99.90
8643;DHT22;4359;49.358;11.256;2022-10-29T00:34:40;11.10;99.90
8643;DHT22;4359;49.358;11.256;2022-10-29T00:37:06;11.00;99.90
8643;DHT22;4359;49.358;11.256;2022-10-29T00:39:31;11.00;99.90
8643;DHT22;4359;49.358;11.256;2022-10-29T00:41:58;10.90;99.90
8643;DHT22;4359;49.358;11.256;2022-10-29T00:44:27;10.90;99.90
8643;DHT22;4359;49.358;11.256;2022-10-29T00:49:38;10.90;99.90
8643;DHT22;4359;49.358;11.256;2022-10-29T00:52:05;11.00;99.90
8643;DHT22;4359;49.358;11.256;2022-10-29T00:54:34;11.00;99.90
8643;DHT22;4359;49.358;11.256;2022-10-29T00:57:08;10.90;99.90
8643;DHT22;4359;49.358;11.256;2022-10-29T00:59:34;11.00;99.90
8643;DHT22;4359;49.358;11.256;2022-10-29T01:02:00;11.00;99.90
8643;DHT22;4359;49.358;11.256;2022-10-29T01:04:26;10.90;99.90
8643;DHT22;4359;49.358;11.256;2022-10-29T01:06:52;10.80;99.90
8643;DHT22;4359;49.358;11.256;2022-10-29T01:09:18;10.80;99.90
8643;DHT22;4359;49.358;11.256;2022-10-29T01:17:22;10.60;99.90
8643;DHT22;4359;49.358;11.256;2022-10-29T01:37:07;10.70;99.90
8643;DHT22;4359;49.358;11.256;2022-10-29T01:44:55;10.60;99.90
8643;DHT22;4359;49.358;11.256;2022-10-29T01:47:26;10.70;99.90
8643;DHT22;4359;49.358;11.256;2022-10-29T01:49:58;10.60;99.90
8643;DHT22;4359;49.358;11.256;2022-10-29T01:52:26;10.50;99.90
8643;DHT22;4359;49.358;11.256;2022-10-29T01:54:53;10.50;99.90
8643;DHT22;4359;49.358;11.256;2022-10-29T01:57:30;10.50;99.90
8643;DHT22;4359;49.358;11.256;2022-10-29T02:00:03;10.40;99.90
8643;DHT22;4359;49.358;11.256;2022-10-29T02:02:57;10.30;99.90
8643;DHT22;4359;49.358;11.256;2022-10-29T02:10:34;10.20;99.90
8643;DHT22;4359;49.358;11.256;2022-10-29T02:13:03;10.20;99.90
8643;DHT22;4359;49.358;11.256;2022-10-29T02:15:32;10.30;99.90
8643;DHT22;4359;49.358;11.256;2022-10-29T02:18:01;10.30;99.90
8643;DHT22;4359;49.358;11.256;2022-10-29T02:20:28;10.20;99.90
8643;DHT22;4359;49.358;11.256;2022-10-29T02:22:54;10.10;99.90
8643;DHT22;4359;49.358;11.256;2022-10-29T02:25:20;10.00;99.90
8643;DHT22;4359;49.358;11.256;2022-10-29T02:27:45;10.00;99.90
8643;DHT22;4359;49.358;11.256;2022-10-29T02:30:11;9.90;99.90
8643;DHT22;4359;49.358;11.256;2022-10-29T02:32:37;9.90;99.90
8643;DHT22;4359;49.358;11.256;2022-10-29T02:35:02;9.80;99.90
8643;DHT22;4359;49.358;11.256;2022-10-29T02:37:28;9.80;99.90
8643;DHT22;4359;49.358;11.256;2022-10-29T02:39:54;9.80;99.90
8643;DHT22;4359;49.358;11.256;2022-10-29T02:42:20;9.90;99.90
8643;DHT22;4359;49.358;11.256;2022-10-29T02:44:45;9.90;99.90
8643;DHT22;4359;49.358;11.256;2022-10-29T02:47:11;10.00;99.90
8643;DHT22;4359;49.358;11.256;2022-10-29T02:49:37;10.00;99.90
8643;DHT22;4359;49.358;11.256;2022-10-29T02:52:02;10.00;99.90
8643;DHT22;4359;49.358;11.256;2022-10-29T02:54:28;10.00;99.90
8643;DHT22;4359;49.358;11.256;2022-10-29T02:56:54;10.00;99.90
8643;DHT22;4359;49.358;11.256;2022-10-29T02:59:19;9.90;99.90
8643;DHT22;4359;49.358;11.256;2022-10-29T03:01:45;9.90;99.90
8643;DHT22;4359;49.358;11.256;2022-10-29T03:04:11;9.90;99.90
8643;DHT22;4359;49.358;11.256;2022-10-29T03:06:36;9.90;99.90
8643;DHT22;4359;49.358;11.256;2022-10-29T03:09:03;9.80;99.90
8643;DHT22;4359;49.358;11.256;2022-10-29T03:11:28;9.80;99.90
8643;DHT22;4359;49.358;11.256;2022-10-29T03:13:54;9.80;99.90
8643;DHT22;4359;49.358;11.256;2022-10-29T03:16:20;9.80;99.90
8643;DHT22;4359;49.358;11.256;2022-10-29T03:18:45;9.80;99.90
8643;DHT22;4359;49.358;11.256;2022-10-29T03:21:11;9.80;99.90
8643;DHT22;4359;49.358;11.256;2022-10-29T03:23:38;9.80;99.90
8643;DHT22;4359;49.358;11.256;2022-10-29T03:26:04;9.80;99.90
8643;DHT22;4359;49.358;11.256;2022-10-29T03:28:29;9.80;99.90
8643;DHT22;4359;49.358;11.256;2022-10-29T03:30:58;9.70;99.90
8643;DHT22;4359;49.358;11.256;2022-10-29T03:33:24;9.70;99.90
8643;DHT22;4359;49.358;11.256;2022-10-29T03:36:01;9.90;99.90
8643;DHT22;4359;49.358;11.256;2022-10-29T03:38:28;9.90;99.90
8643;DHT22;4359;49.358;11.256;2022-10-29T03:40:54;9.80;99.90
8643;DHT22;4359;49.358;11.256;2022-10-29T03:43:20;9.80;99.90
8643;DHT22;4359;49.358;11.256;2022-10-29T03:45:53;9.60;99.90
8643;DHT22;4359;49.358;11.256;2022-10-29T03:48:20;9.50;99.90
8643;DHT22;4359;49.358;11.256;2022-10-29T03:51:00;9.40;99.90
8643;DHT22;4359;49.358;11.256;2022-10-29T03:53:27;9.40;99.90
8643;DHT22;4359;49.358;11.256;2022-10-29T03:55:54;9.30;99.90
8643;DHT22;4359;49.358;11.256;2022-10-29T03:58:21;9.30;99.90
8643;DHT22;4359;49.358;11.256;2022-10-29T04:01:00;9.20;99.90
8643;DHT22;4359;49.358;11.256;2022-10-29T04:03:28;9.20;99.90
8643;DHT22;4359;49.358;11.256;2022-10-29T04:05:55;9.20;99.90
8643;DHT22;4359;49.358;11.256;2022-10-29T04:08:21;9.20;99.90
8643;DHT22;4359;49.358;11.256;2022-10-29T04:10:48;9.20;99.90
8643;DHT22;4359;49.358;11.256;2022-10-29T04:13:15;9.30;99.90
8643;DHT22;4359;49.358;11.256;2022-10-29T04:15:41;9.20;99.90
8643;DHT22;4359;49.358;11.256;2022-10-29T04:18:07;9.20;99.90
8643;DHT22;4359;49.358;11.256;2022-10-29T04:20:34;9.20;99.90
8643;DHT22;4359;49.358;11.256;2022-10-29T04:23:00;9.30;99.90
8643;DHT22;4359;49.358;11.256;2022-10-29T04:25:25;9.40;99.90
8643;DHT22;4359;49.358;11.256;2022-10-29T04:27:53;9.50;99.90
8643;DHT22;4359;49.358;11.256;2022-10-29T04:30:20;9.50;99.90
8643;DHT22;4359;49.358;11.256;2022-10-29T04:32:45;9.50;99.90
8643;DHT22;4359;49.358;11.256;2022-10-29T04:35:11;9.60;99.90
8643;DHT22;4359;49.358;11.256;2022-10-29T04:37:36;9.50;99.90
8643;DHT22;4359;49.358;11.256;2022-10-29T04:40:02;9.40;99.90
8643;DHT22;4359;49.358;11.256;2022-10-29T04:42:28;9.30;99.90
8643;DHT22;4359;49.358;11.256;2022-10-29T04:44:54;9.30;99.90
8643;DHT22;4359;49.358;11.256;2022-10-29T04:47:19;9.20;99.90
8643;DHT22;4359;49.358;11.256;2022-10-29T04:49:45;9.30;99.90
8643;DHT22;4359;49.358;11.256;2022-10-29T04:52:10;9.40;99.90
8643;DHT22;4359;49.358;11.256;2022-10-29T04:54:36;9.40;99.90
8643;DHT22;4359;49.358;11.256;2022-10-29T04:57:02;9.30;99.90
8643;DHT22;4359;49.358;11.256;2022-10-29T04:59:27;9.40;99.90
8643;DHT22;4359;49.358;11.256;2022-10-29T05:01:53;9.40;99.90
8643;DHT22;4359;49.358;11.256;2022-10-29T05:04:18;9.40;99.90
8643;DHT22;4359;49.358;11.256;2022-10-29T05:06:44;9.40;99.90
8643;DHT22;4359;49.358;11.256;2022-10-29T05:09:10;9.40;99.90
8643;DHT22;4359;49.358;11.256;2022-10-29T05:11:35;9.40;99.90
8643;DHT22;4359;49.358;11.256;2022-10-29T05:14:01;9.40;99.90
8643;DHT22;4359;49.358;11.256;2022-10-29T05:16:26;9.50;99.90
8643;DHT22;4359;49.358;11.256;2022-10-29T05:18:52;9.50;99.90
8643;DHT22;4359;49.358;11.256;2022-10-29T05:21:18;9.50;99.90
8643;DHT22;4359;49.358;11.256;2022-10-29T05:23:43;9.50;99.90
8643;DHT22;4359;49.358;11.256;2022-10-29T05:26:09;9.50;99.90
8643;DHT22;4359;49.358;11.256;2022-10-29T05:28:34;9.50;99.90
8643;DHT22;4359;49.358;11.256;2022-10-29T05:31:00;9.50;99.90
8643;DHT22;4359;49.358;11.256;2022-10-29T05:33:29;9.50;99.90
8643;DHT22;4359;49.358;11.256;2022-10-29T05:35:54;9.50;99.90
8643;DHT22;4359;49.358;11.256;2022-10-29T05:38:20;9.50;99.90
8643;DHT22;4359;49.358;11.256;2022-10-29T05:40:46;9.50;99.90
8643;DHT22;4359;49.358;11.256;2022-10-29T05:43:13;9.50;99.90
8643;DHT22;4359;49.358;11.256;2022-10-29T05:45:40;9.50;99.90
8643;DHT22;4359;49.358;11.256;2022-10-29T05:48:06;9.50;99.90
8643;DHT22;4359;49.358;11.256;2022-10-29T05:50:33;9.60;99.90
8643;DHT22;4359;49.358;11.256;2022-10-29T05:53:04;9.60;99.90
8643;DHT22;4359;49.358;11.256;2022-10-29T05:55:31;9.60;99.90
8643;DHT22;4359;49.358;11.256;2022-10-29T05:58:01;9.70;99.90
8643;DHT22;4359;49.358;11.256;2022-10-29T06:00:30;9.70;99.90
8643;DHT22;4359;49.358;11.256;2022-10-29T06:02:56;9.70;99.90
8643;DHT22;4359;49.358;11.256;2022-10-29T06:05:22;9.70;99.90
8643;DHT22;4359;49.358;11.256;2022-10-29T06:07:55;9.70;99.90
8643;DHT22;4359;49.358;11.256;2022-10-29T06:10:22;9.70;99.90
8643;DHT22;4359;49.358;11.256;2022-10-29T06:12:48;9.80;99.90
8643;DHT22;4359;49.358;11.256;2022-10-29T06:15:14;9.90;99.90
8643;DHT22;4359;49.358;11.256;2022-10-29T06:17:41;9.90;99.90
8643;DHT22;4359;49.358;11.256;2022-10-29T06:20:08;10.00;99.90
8643;DHT22;4359;49.358;11.256;2022-10-29T06:22:34;10.00;99.90
8643;DHT22;4359;49.358;11.256;2022-10-29T06:24:59;10.10;99.90
8643;DHT22;4359;49.358;11.256;2022-10-29T06:27:25;10.10;99.90
8643;DHT22;4359;49.358;11.256;2022-10-29T06:29:51;10.10;99.90
8643;DHT22;4359;49.358;11.256;2022-10-29T06:32:16;10.20;99.90
8643;DHT22;4359;49.358;11.256;2022-10-29T06:34:42;10.30;99.90
8643;DHT22;4359;49.358;11.256;2022-10-29T06:37:08;10.40;99.90
8643;DHT22;4359;49.358;11.256;2022-10-29T06:39:33;10.40;99.90
8643;DHT22;4359;49.358;11.256;2022-10-29T06:41:59;10.50;99.90
8643;DHT22;4359;49.358;11.256;2022-10-29T06:44:24;10.50;99.90
8643;DHT22;4359;49.358;11.256;2022-10-29T06:46:50;10.60;99.90
8643;DHT22;4359;49.358;11.256;2022-10-29T06:49:16;10.70;99.90
8643;DHT22;4359;49.358;11.256;2022-10-29T06:51:41;10.70;99.90
8643;DHT22;4359;49.358;11.256;2022-10-29T06:54:07;10.70;99.90
8643;DHT22;4359;49.358;11.256;2022-10-29T06:56:33;10.80;99.90
8643;DHT22;4359;49.358;11.256;2022-10-29T06:58:59;10.80;99.90
8643;DHT22;4359;49.358;11.256;2022-10-29T07:01:24;10.90;99.90
8643;DHT22;4359;49.358;11.256;2022-10-29T07:03:53;11.00;99.90
8643;DHT22;4359;49.358;11.256;2022-10-29T07:06:19;11.10;99.90
8643;DHT22;4359;49.358;11.256;2022-10-29T07:08:45;11.20;99.90
8643;DHT22;4359;49.358;11.256;2022-10-29T07:11:10;11.30;99.90
8643;DHT22;4359;49.358;11.256;2022-10-29T07:13:36;11.30;99.90
8643;DHT22;4359;49.358;11.256;2022-10-29T07:16:02;11.50;99.90
8643;DHT22;4359;49.358;11.256;2022-10-29T07:18:27;11.60;99.90
8643;DHT22;4359;49.358;11.256;2022-10-29T07:20:53;11.60;99.90
8643;DHT22;4359;49.358;11.256;2022-10-29T07:23:18;11.70;99.90
8643;DHT22;4359;49.358;11.256;2022-10-29T07:25:44;11.70;99.90
8643;DHT22;4359;49.358;11.256;2022-10-29T07:28:16;11.80;99.90
8643;DHT22;4359;49.358;11.256;2022-10-29T07:30:43;11.90;99.90
8643;DHT22;4359;49.358;11.256;2022-10-29T07:33:09;11.90;99.90
8643;DHT22;4359;49.358;11.256;2022-10-29T07:35:35;11.90;99.90
8643;DHT22;4359;49.358;11.256;2022-10-29T07:38:03;12.00;99.90
8643;DHT22;4359;49.358;11.256;2022-10-29T07:40:29;12.10;99.90
8643;DHT22;4359;49.358;11.256;2022-10-29T07:42:55;12.20;99.90
8643;DHT22;4359;49.358;11.256;2022-10-29T07:45:21;12.30;99.90
8643;DHT22;4359;49.358;11.256;2022-10-29T07:47:46;12.30;99.90
8643;DHT22;4359;49.358;11.256;2022-10-29T07:50:12;12.40;99.90
8643;DHT22;4359;49.358;11.256;2022-10-29T07:52:39;12.50;99.90
8643;DHT22;4359;49.358;11.256;2022-10-29T07:55:06;12.60;99.90
8643;DHT22;4359;49.358;11.256;2022-10-29T07:57:32;12.70;99.90
8643;DHT22;4359;49.358;11.256;2022-10-29T07:59:57;12.90;99.90
8643;DHT22;4359;49.358;11.256;2022-10-29T08:02:23;13.00;99.90
8643;DHT22;4359;49.358;11.256;2022-10-29T08:04:48;13.20;99.90
8643;DHT22;4359;49.358;11.256;2022-10-29T08:07:14;13.50;99.90
8643;DHT22;4359;49.358;11.256;2022-10-29T08:09:40;13.60;99.90
8643;DHT22;4359;49.358;11.256;2022-10-29T08:12:08;13.80;99.90
8643;DHT22;4359;49.358;11.256;2022-10-29T08:14:34;13.80;99.90
8643;DHT22;4359;49.358;11.256;2022-10-29T08:16:59;13.90;99.90
8643;DHT22;4359;49.358;11.256;2022-10-29T08:19:25;14.00;99.90
8643;DHT22;4359;49.358;11.256;2022-10-29T08:21:51;14.10;99.90
8643;DHT22;4359;49.358;11.256;2022-10-29T08:24:16;14.10;99.90
8643;DHT22;4359;49.358;11.256;2022-10-29T08:26:43;14.10;99.90
8643;DHT22;4359;49.358;11.256;2022-10-29T08:29:08;14.20;99.90
8643;DHT22;4359;49.358;11.256;2022-10-29T08:31:34;14.20;99.90
8643;DHT22;4359;49.358;11.256;2022-10-29T08:33:59;14.30;99.90
8643;DHT22;4359;49.358;11.256;2022-10-29T08:36:25;14.50;99.90
8643;DHT22;4359;49.358;11.256;2022-10-29T08:38:51;15.00;99.90
8643;DHT22;4359;49.358;11.256;2022-10-29T08:41:42;15.50;99.90
8643;DHT22;4359;49.358;11.256;2022-10-29T08:44:23;16.10;99.90
8643;DHT22;4359;49.358;11.256;2022-10-29T08:49:46;17.10;99.90
8643;DHT22;4359;49.358;11.256;2022-10-29T08:52:22;17.40;99.90
8643;DHT22;4359;49.358;11.256;2022-10-29T08:55:06;17.70;99.90
8643;DHT22;4359;49.358;11.256;2022-10-29T08:57:42;18.10;99.90
8643;DHT22;4359;49.358;11.256;2022-10-29T09:00:18;18.40;99.90
8643;DHT22;4359;49.358;11.256;2022-10-29T09:02:44;18.70;99.90
8643;DHT22;4359;49.358;11.256;2022-10-29T09:05:14;19.00;99.90
8643;DHT22;4359;49.358;11.256;2022-10-29T09:10:53;19.20;99.90
8643;DHT22;4359;49.358;11.256;2022-10-29T09:16:38;19.40;99.90
8643;DHT22;4359;49.358;11.256;2022-10-29T09:22:21;19.70;99.90
8643;DHT22;4359;49.358;11.256;2022-10-29T09:25:26;19.90;99.90
8643;DHT22;4359;49.358;11.256;2022-10-29T09:28:15;20.30;99.90
8643;DHT22;4359;49.358;11.256;2022-10-29T09:33:40;20.80;99.90
8643;DHT22;4359;49.358;11.256;2022-10-29T09:36:25;20.80;99.90
8643;DHT22;4359;49.358;11.256;2022-10-29T09:38:56;20.90;99.90
8643;DHT22;4359;49.358;11.256;2022-10-29T09:41:25;21.10;99.90
8643;DHT22;4359;49.358;11.256;2022-10-29T09:43:59;21.20;99.90
8643;DHT22;4359;49.358;11.256;2022-10-29T09:46:46;21.30;99.90
8643;DHT22;4359;49.358;11.256;2022-10-29T09:54:38;21.10;99.90
8643;DHT22;4359;49.358;11.256;2022-10-29T09:57:04;21.10;99.90
8643;DHT22;4359;49.358;11.256;2022-10-29T09:59:41;21.00;99.90
8643;DHT22;4359;49.358;11.256;2022-10-29T10:02:32;21.00;99.90
8643;DHT22;4359;49.358;11.256;2022-10-29T10:05:07;21.20;99.90
8643;DHT22;4359;49.358;11.256;2022-10-29T10:07:41;21.10;99.90
8643;DHT22;4359;49.358;11.256;2022-10-29T10:10:19;21.10;99.90
8643;DHT22;4359;49.358;11.256;2022-10-29T10:12:48;21.00;99.90
8643;DHT22;4359;49.358;11.256;2022-10-29T10:15:25;20.90;99.90
8643;DHT22;4359;49.358;11.256;2022-10-29T10:17:55;20.90;99.90
8643;DHT22;4359;49.358;11.256;2022-10-29T10:21:00;20.80;99.90
8643;DHT22;4359;49.358;11.256;2022-10-29T10:23:33;20.80;99.90
8643;DHT22;4359;49.358;11.256;2022-10-29T10:26:03;20.80;99.90
8643;DHT22;4359;49.358;11.256;2022-10-29T10:28:30;20.80;99.90
8643;DHT22;4359;49.358;11.256;2022-10-29T10:31:11;20.80;99.90
8643;DHT22;4359;49.358;11.256;2022-10-29T10:33:57;20.90;99.90
8643;DHT22;4359;49.358;11.256;2022-10-29T10:36:25;21.00;99.90
8643;DHT22;4359;49.358;11.256;2022-10-29T10:38:57;21.00;99.90
8643;DHT22;4359;49.358;11.256;2022-10-29T10:41:26;21.00;99.90
8643;DHT22;4359;49.358;11.256;2022-10-29T10:43:54;21.00;99.90
8643;DHT22;4359;49.358;11.256;2022-10-29T10:46:25;21.00;99.90
8643;DHT22;4359;49.358;11.256;2022-10-29T10:49:01;21.00;99.90
8643;DHT22;4359;49.358;11.256;2022-10-29T10:51:32;21.10;99.90
8643;DHT22;4359;49.358;11.256;2022-10-29T10:54:00;21.10;99.90
8643;DHT22;4359;49.358;11.256;2022-10-29T10:56:28;21.10;99.90
8643;DHT22;4359;49.358;11.256;2022-10-29T10:59:20;21.30;99.90
8643;DHT22;4359;49.358;11.256;2022-10-29T11:01:47;21.30;99.90
8643;DHT22;4359;49.358;11.256;2022-10-29T11:04:28;21.40;99.90
8643;DHT22;4359;49.358;11.256;2022-10-29T11:06:59;21.50;99.90
8643;DHT22;4359;49.358;11.256;2022-10-29T11:09:33;21.60;99.90
8643;DHT22;4359;49.358;11.256;2022-10-29T11:12:12;21.60;99.90
8643;DHT22;4359;49.358;11.256;2022-10-29T11:14:47;21.70;99.90
8643;DHT22;4359;49.358;11.256;2022-10-29T11:17:35;21.60;99.90
8643;DHT22;4359;49.358;11.256;2022-10-29T11:20:07;21.80;99.90
8643;DHT22;4359;49.358;11.256;2022-10-29T11:26:16;22.00;99.90
8643;DHT22;4359;49.358;11.256;2022-10-29T11:28:53;21.90;99.90
8643;DHT22;4359;49.358;11.256;2022-10-29T11:31:26;22.10;99.90
8643;DHT22;4359;49.358;11.256;2022-10-29T11:33:57;22.40;99.90
8643;DHT22;4359;49.358;11.256;2022-10-29T11:36:31;22.80;99.90
8643;DHT22;4359;49.358;11.256;2022-10-29T11:41:55;23.50;99.90
8643;DHT22;4359;49.358;11.256;2022-10-29T11:44:22;23.70;99.90
8643;DHT22;4359;49.358;11.256;2022-10-29T11:50:10;23.90;99.90
8643;DHT22;4359;49.358;11.256;2022-10-29T11:52:46;24.00;99.90
8643;DHT22;4359;49.358;11.256;2022-10-29T11:58:07;24.30;99.90
8643;DHT22;4359;49.358;11.256;2022-10-29T12:11:24;24.20;99.90
8643;DHT22;4359;49.358;11.256;2022-10-29T12:20:09;23.40;99.90
8643;DHT22;4359;49.358;11.256;2022-10-29T12:22:41;23.60;99.90
8643;DHT22;4359;49.358;11.256;2022-10-29T12:25:30;23.80;99.90
8643;DHT22;4359;49.358;11.256;2022-10-29T12:29:02;23.60;99.90
8643;DHT22;4359;49.358;11.256;2022-10-29T12:31:32;23.30;99.90
8643;DHT22;4359;49.358;11.256;2022-10-29T12:34:12;23.40;99.90
8643;DHT22;4359;49.358;11.256;2022-10-29T12:37:20;23.50;99.90
8643;DHT22;4359;49.358;11.256;2022-10-29T12:39:45;23.70;99.90
8643;DHT22;4359;49.358;11.256;2022-10-29T12:42:21;23.70;99.90
8643;DHT22;4359;49.358;11.256;2022-10-29T12:56:23;24.00;99.90
8643;DHT22;4359;49.358;11.256;2022-10-29T12:58:51;24.20;99.90
8643;DHT22;4359;49.358;11.256;2022-10-29T13:09:20;24.60;99.90
8643;DHT22;4359;49.358;11.256;2022-10-29T13:14:40;24.50;99.90
8643;DHT22;4359;49.358;11.256;2022-10-29T13:17:32;24.70;99.90
8643;DHT22;4359;49.358;11.256;2022-10-29T13:23:02;24.50;99.90
8643;DHT22;4359;49.358;11.256;2022-10-29T13:30:38;24.40;99.90
8643;DHT22;4359;49.358;11.256;2022-10-29T13:38:16;24.50;99.90
8643;DHT22;4359;49.358;11.256;2022-10-29T13:41:17;24.50;99.90
8643;DHT22;4359;49.358;11.256;2022-10-29T13:44:00;24.50;99.90
8643;DHT22;4359;49.358;11.256;2022-10-29T13:49:02;24.00;99.90
8643;DHT22;4359;49.358;11.256;2022-10-29T13:51:37;23.80;99.90
8643;DHT22;4359;49.358;11.256;2022-10-29T13:54:14;23.60;99.90
8643;DHT22;4359;49.358;11.256;2022-10-29T13:57:13;23.60;99.90
8643;DHT22;4359;49.358;11.256;2022-10-29T14:00:02;23.50;99.90
8643;DHT22;4359;49.358;11.256;2022-10-29T14:02:36;23.60;99.90
8643;DHT22;4359;49.358;11.256;2022-10-29T14:08:11;23.70;99.90
8643;DHT22;4359;49.358;11.256;2022-10-29T14:10:42;23.60;99.90
8643;DHT22;4359;49.358;11.256;2022-10-29T14:18:44;23.30;99.90
8643;DHT22;4359;49.358;11.256;2022-10-29T14:21:27;23.10;99.90
8643;DHT22;4359;49.358;11.256;2022-10-29T14:26:21;22.60;99.90
8643;DHT22;4359;49.358;11.256;2022-10-29T14:28:49;22.50;99.90
8643;DHT22;4359;49.358;11.256;2022-10-29T14:31:18;22.30;99.90
8643;DHT22;4359;49.358;11.256;2022-10-29T14:33:54;22.20;99.90
8643;DHT22;4359;49.358;11.256;2022-10-29T14:39:04;21.90;99.90
8643;DHT22;4359;49.358;11.256;2022-10-29T14:41:32;21.80;99.90
8643;DHT22;4359;49.358;11.256;2022-10-29T14:44:08;21.80;99.90
8643;DHT22;4359;49.358;11.256;2022-10-29T14:46:36;21.70;99.90
8643;DHT22;4359;49.358;11.256;2022-10-29T14:49:22;21.60;99.90
8643;DHT22;4359;49.358;11.256;2022-10-29T14:52:01;21.50;99.90
8643;DHT22;4359;49.358;11.256;2022-10-29T14:54:31;21.40;99.90
8643;DHT22;4359;49.358;11.256;2022-10-29T14:57:00;21.20;99.90
8643;DHT22;4359;49.358;11.256;2022-10-29T14:59:28;21.10;99.90
8643;DHT22;4359;49.358;11.256;2022-10-29T15:01:58;21.00;99.90
8643;DHT22;4359;49.358;11.256;2022-10-29T15:04:29;20.90;99.90
8643;DHT22;4359;49.358;11.256;2022-10-29T15:09:45;20.40;99.90
8643;DHT22;4359;49.358;11.256;2022-10-29T15:12:21;20.30;99.90
8643;DHT22;4359;49.358;11.256;2022-10-29T15:14:50;20.20;99.90
8643;DHT22;4359;49.358;11.256;2022-10-29T15:19:47;19.90;99.90
8643;DHT22;4359;49.358;11.256;2022-10-29T15:24:47;19.70;99.90
8643;DHT22;4359;49.358;11.256;2022-10-29T15:27:15;19.60;99.90
8643;DHT22;4359;49.358;11.256;2022-10-29T15:29:44;19.30;99.90
8643;DHT22;4359;49.358;11.256;2022-10-29T15:32:15;19.20;99.90
8643;DHT22;4359;49.358;11.256;2022-10-29T15:34:49;19.10;99.90
8643;DHT22;4359;49.358;11.256;2022-10-29T15:42:29;18.60;99.90
8643;DHT22;4359;49.358;11.256;2022-10-29T15:50:33;18.00;99.90
8643;DHT22;4359;49.358;11.256;2022-10-29T15:53:02;17.80;99.90
8643;DHT22;4359;49.358;11.256;2022-10-29T15:55:32;17.60;99.90
8643;DHT22;4359;49.358;11.256;2022-10-29T16:00:29;17.20;99.90
8643;DHT22;4359;49.358;11.256;2022-10-29T16:03:00;17.10;99.90
8643;DHT22;4359;49.358;11.256;2022-10-29T16:05:26;16.90;99.90
8643;DHT22;4359;49.358;11.256;2022-10-29T16:07:52;16.80;99.90
8643;DHT22;4359;49.358;11.256;2022-10-29T16:10:20;16.80;99.90
8643;DHT22;4359;49.358;11.256;2022-10-29T16:12:47;16.70;99.90
8643;DHT22;4359;49.358;11.256;2022-10-29T16:15:16;16.50;99.90
8643;DHT22;4359;49.358;11.256;2022-10-29T16:17:42;16.50;99.90
8643;DHT22;4359;49.358;11.256;2022-10-29T16:20:12;16.30;99.90
8643;DHT22;4359;49.358;11.256;2022-10-29T16:22:38;16.20;99.90
8643;DHT22;4359;49.358;11.256;2022-10-29T16:25:04;16.10;99.90
8643;DHT22;4359;49.358;11.256;2022-10-29T16:27:30;16.10;99.90
8643;DHT22;4359;49.358;11.256;2022-10-29T16:29:55;16.10;99.90
8643;DHT22;4359;49.358;11.256;2022-10-29T16:32:22;16.00;99.90
8643;DHT22;4359;49.358;11.256;2022-10-29T16:34:48;16.00;99.90
8643;DHT22;4359;49.358;11.256;2022-10-29T16:37:16;15.90;99.90
8643;DHT22;4359;49.358;11.256;2022-10-29T16:39:42;15.80;99.90
8643;DHT22;4359;49.358;11.256;2022-10-29T16:42:30;15.80;99.90
8643;DHT22;4359;49.358;11.256;2022-10-29T16:44:56;15.80;99.90
8643;DHT22;4359;49.358;11.256;2022-10-29T16:47:22;15.90;99.90
8643;DHT22;4359;49.358;11.256;2022-10-29T16:49:48;15.90;99.90
8643;DHT22;4359;49.358;11.256;2022-10-29T16:52:14;15.90;99.90
8643;DHT22;4359;49.358;11.256;2022-10-29T16:54:39;15.80;99.90
8643;DHT22;4359;49.358;11.256;2022-10-29T16:57:05;15.70;99.90
8643;DHT22;4359;49.358;11.256;2022-10-29T16:59:31;15.70;99.90
8643;DHT22;4359;49.358;11.256;2022-10-29T17:01:56;15.60;99.90
8643;DHT22;4359;49.358;11.256;2022-10-29T17:04:22;15.50;99.90
8643;DHT22;4359;49.358;11.256;2022-10-29T17:06:48;15.50;99.90
8643;DHT22;4359;49.358;11.256;2022-10-29T17:09:13;15.40;99.90
8643;DHT22;4359;49.358;11.256;2022-10-29T17:11:39;15.30;99.90
8643;DHT22;4359;49.358;11.256;2022-10-29T17:14:05;15.30;99.90
8643;DHT22;4359;49.358;11.256;2022-10-29T17:16:30;15.20;99.90
8643;DHT22;4359;49.358;11.256;2022-10-29T17:18:56;15.10;99.90
8643;DHT22;4359;49.358;11.256;2022-10-29T17:21:22;15.10;99.90
8643;DHT22;4359;49.358;11.256;2022-10-29T17:23:48;15.00;99.90
8643;DHT22;4359;49.358;11.256;2022-10-29T17:26:14;14.90;99.90
8643;DHT22;4359;49.358;11.256;2022-10-29T17:28:40;14.80;99.90
8643;DHT22;4359;49.358;11.256;2022-10-29T17:31:10;14.70;99.90
8643;DHT22;4359;49.358;11.256;2022-10-29T17:33:36;14.60;99.90
8643;DHT22;4359;49.358;11.256;2022-10-29T17:36:03;14.60;99.90
8643;DHT22;4359;49.358;11.256;2022-10-29T17:38:29;14.60;99.90
8643;DHT22;4359;49.358;11.256;2022-10-29T17:40:55;14.60;99.90
8643;DHT22;4359;49.358;11.256;2022-10-29T17:43:21;14.60;99.90
8643;DHT22;4359;49.358;11.256;2022-10-29T17:45:46;14.50;99.90
8643;DHT22;4359;49.358;11.256;2022-10-29T17:48:12;14.50;99.90
8643;DHT22;4359;49.358;11.256;2022-10-29T17:50:37;14.50;99.90
8643;DHT22;4359;49.358;11.256;2022-10-29T17:53:03;14.50;99.90
8643;DHT22;4359;49.358;11.256;2022-10-29T17:55:29;14.50;99.90
8643;DHT22;4359;49.358;11.256;2022-10-29T17:57:54;14.40;99.90
8643;DHT22;4359;49.358;11.256;2022-10-29T18:00:20;14.40;99.90
8643;DHT22;4359;49.358;11.256;2022-10-29T18:02:49;14.40;99.90
8643;DHT22;4359;49.358;11.256;2022-10-29T18:05:16;14.40;99.90
8643;DHT22;4359;49.358;11.256;2022-10-29T18:07:42;14.50;99.90
8643;DHT22;4359;49.358;11.256;2022-10-29T18:10:07;14.40;99.90
8643;DHT22;4359;49.358;11.256;2022-10-29T18:12:33;14.30;99.90
8643;DHT22;4359;49.358;11.256;2022-10-29T18:14:59;14.20;99.90
8643;DHT22;4359;49.358;11.256;2022-10-29T18:17:24;14.10;99.90
8643;DHT22;4359;49.358;11.256;2022-10-29T18:19:50;14.00;99.90
8643;DHT22;4359;49.358;11.256;2022-10-29T18:22:16;13.90;99.90
8643;DHT22;4359;49.358;11.256;2022-10-29T18:24:42;13.70;99.90
8643;DHT22;4359;49.358;11.256;2022-10-29T18:27:07;13.60;99.90
8643;DHT22;4359;49.358;11.256;2022-10-29T18:29:33;13.50;99.90
8643;DHT22;4359;49.358;11.256;2022-10-29T18:31:58;13.30;99.90
8643;DHT22;4359;49.358;11.256;2022-10-29T18:34:24;13.30;99.90
8643;DHT22;4359;49.358;11.256;2022-10-29T18:36:50;13.30;99.90
8643;DHT22;4359;49.358;11.256;2022-10-29T18:39:15;13.40;99.90
8643;DHT22;4359;49.358;11.256;2022-10-29T18:41:41;13.30;99.90